createdAt,value
2023-10-25T00:00:09.769Z,3.10
2023-10-25T00:02:39.449Z,3.30
2023-10-25T00:05:08.212Z,2.98
2023-10-25T00:07:36.201Z,3.60
2023-10-25T00:10:04.458Z,2.90
2023-10-25T00:12:32.630Z,2.90
2023-10-25T00:15:00.638Z,3.37
2023-10-25T00:17:28.638Z,3.30
2023-10-25T00:19:56.469Z,4.35
2023-10-25T00:22:24.341Z,4.47
2023-10-25T00:24:51.917Z,4.00
2023-10-25T00:27:19.690Z,3.72
2023-10-25T00:29:47.447Z,3.58
2023-10-25T00:32:18.076Z,3.00
2023-10-25T00:34:45.980Z,2.83
2023-10-25T00:37:13.971Z,3.42
2023-10-25T00:39:42.125Z,3.27
2023-10-25T00:42:12.269Z,3.20
2023-10-25T00:44:40.330Z,2.67
2023-10-25T00:47:08.751Z,2.83
2023-10-25T00:49:36.669Z,3.47
2023-10-25T00:52:05.865Z,3.40
2023-10-25T00:54:33.729Z,3.02
2023-10-25T00:57:01.751Z,2.65
2023-10-25T00:59:31.908Z,2.55
2023-10-25T01:02:01.320Z,2.90
2023-10-25T01:04:30.035Z,2.62
2023-10-25T01:06:58.152Z,2.87
2023-10-25T01:09:25.942Z,3.00
2023-10-25T01:11:54.395Z,2.98
2023-10-25T01:14:27.681Z,2.55
2023-10-25T01:16:55.861Z,3.02
2023-10-25T01:19:23.786Z,2.67
2023-10-25T01:21:51.692Z,2.67
2023-10-25T01:24:19.734Z,2.77
2023-10-25T01:26:47.664Z,3.00
2023-10-25T01:29:15.441Z,3.10
2023-10-25T01:31:43.303Z,5.12
2023-10-25T01:34:11.134Z,4.60
2023-10-25T01:36:39.135Z,3.98
2023-10-25T01:39:07.070Z,3.62
2023-10-25T01:41:34.926Z,3.47
2023-10-25T01:44:02.834Z,2.90
2023-10-25T01:46:30.821Z,3.20
2023-10-25T01:49:00.304Z,2.25
2023-10-25T01:51:28.146Z,2.90
2023-10-25T01:53:56.412Z,3.30
2023-10-25T01:56:24.139Z,2.80
2023-10-25T01:58:52.065Z,2.67
2023-10-25T02:01:19.946Z,2.90
2023-10-25T02:03:47.941Z,3.33
2023-10-25T02:06:16.475Z,3.33
2023-10-25T02:08:44.496Z,3.42
2023-10-25T02:11:16.443Z,3.00
2023-10-25T02:13:44.245Z,4.12
2023-10-25T02:16:14.984Z,5.15
2023-10-25T02:18:42.893Z,6.72
2023-10-25T02:21:11.439Z,6.20
2023-10-25T02:23:39.884Z,5.97
2023-10-25T02:26:07.879Z,5.87
2023-10-25T02:28:35.686Z,6.17
2023-10-25T02:31:03.553Z,6.25
2023-10-25T02:33:31.366Z,6.08
2023-10-25T02:35:59.233Z,5.58
2023-10-25T02:38:27.508Z,6.15
2023-10-25T02:40:56.835Z,5.47
2023-10-25T02:43:24.901Z,5.50
2023-10-25T02:45:53.409Z,5.20
2023-10-25T02:48:23.099Z,3.58
2023-10-25T02:50:50.826Z,3.60
2023-10-25T02:53:18.673Z,3.08
2023-10-25T02:55:48.034Z,3.15
2023-10-25T02:58:16.626Z,3.20
2023-10-25T03:00:44.872Z,2.98
2023-10-25T03:03:12.758Z,2.90
2023-10-25T03:05:40.730Z,3.20
2023-10-25T03:08:08.602Z,3.25
2023-10-25T03:10:36.516Z,3.30
2023-10-25T03:13:04.542Z,3.17
2023-10-25T03:15:32.527Z,3.98
2023-10-25T03:18:00.326Z,3.70
2023-10-25T03:20:29.272Z,3.22
2023-10-25T03:23:00.151Z,3.33
2023-10-25T03:25:28.482Z,2.90
2023-10-25T03:27:56.484Z,3.02
2023-10-25T03:30:24.059Z,3.25
2023-10-25T03:32:51.718Z,3.40
2023-10-25T03:35:19.655Z,2.70
2023-10-25T03:37:47.503Z,2.80
2023-10-25T03:40:15.872Z,2.98
2023-10-25T03:42:43.839Z,2.70
2023-10-25T03:45:11.845Z,2.92
2023-10-25T03:47:39.565Z,2.80
2023-10-25T03:50:08.621Z,3.10
2023-10-25T03:52:36.951Z,3.30
2023-10-25T03:55:05.894Z,3.95
2023-10-25T03:57:33.775Z,3.30
2023-10-25T04:00:01.262Z,3.67
2023-10-25T04:02:29.399Z,3.40
2023-10-25T04:04:57.074Z,3.42
2023-10-25T04:07:25.046Z,3.55
2023-10-25T04:09:53.065Z,3.37
2023-10-25T04:12:20.897Z,3.08
2023-10-25T04:14:48.856Z,4.17
2023-10-25T04:17:16.845Z,3.58
2023-10-25T04:19:44.704Z,3.58
2023-10-25T04:22:14.311Z,3.30
2023-10-25T04:24:42.168Z,3.17
2023-10-25T04:27:10.089Z,3.37
2023-10-25T04:29:37.971Z,3.20
2023-10-25T04:32:06.819Z,4.20
2023-10-25T04:34:34.428Z,4.42
2023-10-25T04:37:02.178Z,4.17
2023-10-25T04:39:33.173Z,4.95
2023-10-25T04:42:00.872Z,3.95
2023-10-25T04:44:28.833Z,4.17
2023-10-25T04:46:56.613Z,3.77
2023-10-25T04:49:26.358Z,3.77
2023-10-25T04:51:54.235Z,4.58
2023-10-25T04:54:21.695Z,4.55
2023-10-25T04:56:49.652Z,4.45
2023-10-25T04:59:17.492Z,4.62
2023-10-25T05:01:47.405Z,5.75
2023-10-25T05:04:18.407Z,8.40
2023-10-25T05:06:47.417Z,11.08
2023-10-25T05:09:16.954Z,11.28
2023-10-25T05:11:50.091Z,12.00
2023-10-25T05:14:18.409Z,10.82
2023-10-25T05:16:46.889Z,10.08
2023-10-25T05:19:15.427Z,9.98
2023-10-25T05:21:44.651Z,10.43
2023-10-25T05:24:13.431Z,10.23
2023-10-25T05:26:41.743Z,10.93
2023-10-25T05:29:10.047Z,11.08
2023-10-25T05:31:42.737Z,9.00
2023-10-25T05:34:13.298Z,8.43
2023-10-25T05:36:42.026Z,8.20
2023-10-25T05:39:10.722Z,7.45
2023-10-25T05:41:41.588Z,8.00
2023-10-25T05:44:17.580Z,8.23
2023-10-25T05:46:45.274Z,9.95
2023-10-25T05:49:13.625Z,9.50
2023-10-25T05:51:42.469Z,8.58
2023-10-25T05:54:11.128Z,7.72
2023-10-25T05:56:39.422Z,8.60
2023-10-25T05:59:07.941Z,9.73
2023-10-25T06:01:44.388Z,12.63
2023-10-25T06:04:13.821Z,8.45
2023-10-25T06:06:44.649Z,7.40
2023-10-25T06:09:14.160Z,6.58
2023-10-25T06:11:42.767Z,7.92
2023-10-25T06:14:11.489Z,8.40
2023-10-25T06:16:39.413Z,8.13
2023-10-25T06:19:07.868Z,9.13
2023-10-25T06:21:35.757Z,9.33
2023-10-25T06:24:03.784Z,8.70
2023-10-25T06:26:31.615Z,9.80
2023-10-25T06:28:59.919Z,9.18
2023-10-25T06:31:27.887Z,8.53
2023-10-25T06:33:55.715Z,8.35
2023-10-25T06:36:23.954Z,7.62
2023-10-25T06:38:51.988Z,9.95
2023-10-25T06:41:25.311Z,7.47
2023-10-25T06:43:54.334Z,7.25
2023-10-25T06:46:22.867Z,5.80
2023-10-25T06:48:53.014Z,5.47
2023-10-25T06:51:21.387Z,5.42
2023-10-25T06:53:49.809Z,5.60
2023-10-25T06:56:18.404Z,5.17
2023-10-25T06:58:46.833Z,5.17
2023-10-25T07:01:20.235Z,4.95
2023-10-25T07:03:50.438Z,5.30
2023-10-25T07:06:20.000Z,5.40
2023-10-25T07:08:49.526Z,6.75
2023-10-25T07:11:17.316Z,5.97
2023-10-25T07:13:45.264Z,6.95
2023-10-25T07:16:13.375Z,8.55
2023-10-25T07:18:41.675Z,7.65
2023-10-25T07:21:10.190Z,7.50
2023-10-25T07:23:38.100Z,7.67
2023-10-25T07:26:07.333Z,7.33
2023-10-25T07:28:35.203Z,7.42
2023-10-25T07:31:03.615Z,12.30
2023-10-25T07:33:31.272Z,6.95
2023-10-25T07:35:59.998Z,7.00
2023-10-25T07:38:27.969Z,7.62
2023-10-25T07:40:55.684Z,8.93
2023-10-25T07:43:25.068Z,9.90
2023-10-25T07:45:55.910Z,9.78
2023-10-25T07:48:22.482Z,8.15
2023-10-25T07:50:50.067Z,10.48
2023-10-25T07:53:18.066Z,9.03
2023-10-25T08:00:51.014Z,11.85
2023-10-25T08:03:19.160Z,10.60
2023-10-25T08:05:47.226Z,9.80
2023-10-25T08:08:15.271Z,8.83
2023-10-25T08:10:43.141Z,8.43
2023-10-25T08:13:11.309Z,9.13
2023-10-25T08:15:39.211Z,9.35
2023-10-25T08:18:07.036Z,10.00
2023-10-25T08:20:37.641Z,6.95
2023-10-25T08:23:05.589Z,7.17
2023-10-25T08:25:36.410Z,7.40
2023-10-25T08:28:04.459Z,8.28
2023-10-25T08:30:32.232Z,8.15
2023-10-25T08:33:00.149Z,11.93
2023-10-25T08:35:28.165Z,11.15
2023-10-25T08:37:56.153Z,10.35
2023-10-25T08:40:27.479Z,10.65
2023-10-25T08:43:00.100Z,14.47
2023-10-25T08:45:30.540Z,16.48
2023-10-25T08:47:58.212Z,12.93
2023-10-25T08:50:27.614Z,11.80
2023-10-25T08:52:57.968Z,12.25
2023-10-25T08:55:25.744Z,12.25
2023-10-25T08:57:56.760Z,12.47
2023-10-25T09:00:35.804Z,11.08
2023-10-25T09:02:58.683Z,10.95
2023-10-25T09:05:29.653Z,12.85
2023-10-25T09:07:57.943Z,11.20
2023-10-25T09:10:26.116Z,10.65
2023-10-25T09:12:53.992Z,9.58
2023-10-25T09:15:30.176Z,7.97
2023-10-25T09:17:58.887Z,6.33
2023-10-25T09:20:33.285Z,9.35
2023-10-25T09:23:12.347Z,8.13
2023-10-25T09:25:40.203Z,9.15
2023-10-25T09:28:28.494Z,5.95
2023-10-25T09:31:02.479Z,5.60
2023-10-25T09:33:32.061Z,6.45
2023-10-25T09:35:59.966Z,5.12
2023-10-25T09:38:27.839Z,5.62
2023-10-25T09:40:59.366Z,5.15
2023-10-25T09:43:28.899Z,4.87
2023-10-25T09:45:58.850Z,4.47
2023-10-25T09:48:29.078Z,5.05
2023-10-25T09:51:15.120Z,4.25
2023-10-25T09:53:51.212Z,4.53
2023-10-25T09:56:19.549Z,3.98
2023-10-25T09:58:47.828Z,3.50
2023-10-25T10:01:15.447Z,4.25
2023-10-25T10:03:57.995Z,4.00
2023-10-25T10:06:46.453Z,3.62
2023-10-25T10:09:22.395Z,3.50
2023-10-25T10:11:58.032Z,2.98
2023-10-25T10:14:34.775Z,4.28
2023-10-25T10:17:15.266Z,3.50
2023-10-25T10:19:47.696Z,4.25
2023-10-25T10:22:20.489Z,4.55
2023-10-25T10:24:56.504Z,4.37
2023-10-25T10:27:44.002Z,4.75
2023-10-25T10:30:35.524Z,3.58
2023-10-25T10:33:04.838Z,4.10
2023-10-25T10:35:34.284Z,4.40
2023-10-25T10:38:03.899Z,4.17
2023-10-25T10:40:31.627Z,4.28
2023-10-25T10:42:59.623Z,3.52
2023-10-25T10:45:31.139Z,4.28
2023-10-25T10:48:22.743Z,3.60
2023-10-25T10:50:50.798Z,4.50
2023-10-25T10:53:18.614Z,5.40
2023-10-25T10:55:46.497Z,3.85
2023-10-25T10:58:14.328Z,2.58
2023-10-25T11:00:45.611Z,3.05
2023-10-25T11:03:13.580Z,2.65
2023-10-25T11:05:42.110Z,2.55
2023-10-25T11:08:14.192Z,2.25
2023-10-25T11:10:42.476Z,2.05
2023-10-25T11:13:11.377Z,1.98
2023-10-25T11:15:39.615Z,1.75
2023-10-25T11:18:11.721Z,2.17
2023-10-25T11:20:42.083Z,1.92
2023-10-25T11:23:10.317Z,2.42
2023-10-25T11:25:39.077Z,2.47
2023-10-25T11:28:06.588Z,2.17
2023-10-25T11:30:35.394Z,2.35
2023-10-25T11:33:03.546Z,2.27
2023-10-25T11:35:31.288Z,2.20
2023-10-25T11:37:59.772Z,1.45
2023-10-25T11:40:43.940Z,1.40
2023-10-25T11:43:11.938Z,1.40
2023-10-25T11:45:41.179Z,1.98
2023-10-25T11:48:11.454Z,1.82
2023-10-25T11:50:52.266Z,1.40
2023-10-25T11:53:21.549Z,1.60
2023-10-25T11:55:57.197Z,1.65
2023-10-25T11:58:33.765Z,1.42
2023-10-25T12:01:37.433Z,1.67
2023-10-25T12:04:14.252Z,2.17
2023-10-25T12:06:44.545Z,2.65
2023-10-25T12:09:16.863Z,4.35
2023-10-25T12:11:44.601Z,3.60
2023-10-25T12:14:31.385Z,4.05
2023-10-25T12:17:16.082Z,3.45
2023-10-25T12:19:47.738Z,2.80
2023-10-25T12:23:20.839Z,2.70
2023-10-25T12:25:03.998Z,2.30
2023-10-25T12:27:31.517Z,2.22
2023-10-25T12:29:59.058Z,2.65
2023-10-25T12:32:26.918Z,3.80
2023-10-25T12:34:59.005Z,4.25
2023-10-25T12:37:24.346Z,2.72
2023-10-25T12:43:01.704Z,6.45
2023-10-25T12:45:32.312Z,3.72
2023-10-25T12:48:36.344Z,124.27
2023-10-25T12:51:32.105Z,35.78
2023-10-25T13:00:12.098Z,6.08
2023-10-25T13:02:40.019Z,6.30
2023-10-25T13:05:09.728Z,9.13
2023-10-25T13:07:54.084Z,12.88
2023-10-25T13:10:22.314Z,9.65
2023-10-25T13:12:53.636Z,5.47
2023-10-25T13:15:24.837Z,5.00
2023-10-25T13:18:02.832Z,3.50
2023-10-25T13:20:31.842Z,3.83
2023-10-25T13:23:03.597Z,3.65
2023-10-25T13:25:36.630Z,7.47
2023-10-25T13:28:29.130Z,4.50
2023-10-25T13:31:19.987Z,4.70
2023-10-25T13:35:02.377Z,3.60
2023-10-25T13:41:23.043Z,4.10
2023-10-25T13:43:50.634Z,2.80
2023-10-25T13:46:19.045Z,2.95
2023-10-25T13:48:46.526Z,2.75
2023-10-25T13:51:14.344Z,3.15
2023-10-25T13:53:55.434Z,3.40
2023-10-25T13:59:50.041Z,4.05
2023-10-25T14:02:21.018Z,3.80
2023-10-25T14:04:48.537Z,2.95
2023-10-25T14:07:55.266Z,3.12
2023-10-25T14:10:24.731Z,3.55
2023-10-25T14:12:56.206Z,18.37
2023-10-25T14:15:23.706Z,9.83
2023-10-25T14:17:51.556Z,10.80
2023-10-25T14:20:23.938Z,16.37
2023-10-25T14:22:51.503Z,11.10
2023-10-25T14:25:19.090Z,9.10
2023-10-25T14:27:46.537Z,7.95
2023-10-25T14:30:18.051Z,5.30
2023-10-25T14:32:51.524Z,5.20
2023-10-25T14:38:53.244Z,3.12
2023-10-25T14:41:24.754Z,4.62
2023-10-25T14:43:53.094Z,5.65
2023-10-25T14:46:20.787Z,5.17
2023-10-25T14:48:50.915Z,6.25
2023-10-25T14:51:22.619Z,4.62
2023-10-25T14:53:52.246Z,4.85
2023-10-25T14:56:21.643Z,3.85
2023-10-25T14:58:49.604Z,4.75
2023-10-25T15:01:25.980Z,4.70
2023-10-25T15:03:55.302Z,9.93
2023-10-25T15:06:25.152Z,9.95
2023-10-25T15:08:54.286Z,6.42
2023-10-25T15:11:23.040Z,5.72
2023-10-25T15:13:50.915Z,4.20
2023-10-25T15:16:18.976Z,7.22
2023-10-25T15:18:47.002Z,4.37
2023-10-25T15:21:16.301Z,4.03
2023-10-25T15:23:44.147Z,5.00
2023-10-25T15:26:13.785Z,5.53
2023-10-25T15:28:44.849Z,9.78
2023-10-25T15:31:13.062Z,10.90
2023-10-25T15:33:41.850Z,10.32
2023-10-25T15:36:10.102Z,8.63
2023-10-25T15:38:38.683Z,8.80
2023-10-25T15:41:25.707Z,10.70
2023-10-25T15:43:55.240Z,8.48
2023-10-25T15:46:27.993Z,7.80
2023-10-25T15:49:00.177Z,13.10
2023-10-25T15:51:28.001Z,9.18
2023-10-25T15:53:58.583Z,6.53
2023-10-25T15:56:26.434Z,6.55
2023-10-25T15:58:54.320Z,8.43
2023-10-25T16:01:31.770Z,7.75
2023-10-25T16:03:57.866Z,9.35
2023-10-25T16:06:25.773Z,8.45
2023-10-25T16:08:53.565Z,7.78
2023-10-25T16:11:21.471Z,7.87
2023-10-25T16:13:49.136Z,5.35
2023-10-25T16:16:16.731Z,4.58
2023-10-25T16:18:45.009Z,8.03
2023-10-25T16:21:13.188Z,5.47
2023-10-25T16:23:43.576Z,5.95
2023-10-25T16:26:13.344Z,5.72
2023-10-25T16:28:43.224Z,7.50
2023-10-25T16:31:11.723Z,7.40
2023-10-25T16:33:41.306Z,5.55
2023-10-25T16:36:14.058Z,5.58
2023-10-25T16:38:42.269Z,4.17
2023-10-25T16:41:13.605Z,3.87
2023-10-25T16:43:41.676Z,3.52
2023-10-25T16:46:12.878Z,4.55
2023-10-25T16:48:44.741Z,2.85
2023-10-25T16:51:19.050Z,2.95
2023-10-25T16:53:49.660Z,4.37
2023-10-25T16:56:22.060Z,5.95
2023-10-25T16:58:51.326Z,7.12
2023-10-25T17:01:19.269Z,5.08
2023-10-25T17:03:47.266Z,4.97
2023-10-25T17:06:16.183Z,5.42
2023-10-25T17:08:45.498Z,5.85
2023-10-25T17:11:13.498Z,5.90
2023-10-25T17:13:41.496Z,5.05
2023-10-25T17:16:09.600Z,5.42
2023-10-25T17:18:40.570Z,6.53
2023-10-25T17:21:10.867Z,6.75
2023-10-25T17:23:38.820Z,9.70
2023-10-25T17:26:07.081Z,4.37
2023-10-25T17:28:35.036Z,5.30
2023-10-25T17:31:03.074Z,7.78
2023-10-25T17:33:31.077Z,10.20
2023-10-25T17:36:00.717Z,9.20
2023-10-25T17:38:29.129Z,8.65
2023-10-25T17:40:58.275Z,9.13
2023-10-25T17:43:26.680Z,10.25
2023-10-25T17:48:28.856Z,10.32
2023-10-25T17:50:57.274Z,10.35
2023-10-25T17:53:32.354Z,14.28
2023-10-25T17:56:03.047Z,16.67
2023-10-25T17:58:32.824Z,18.37
2023-10-25T18:01:00.738Z,27.07
2023-10-25T18:03:28.874Z,32.75
2023-10-25T18:06:05.235Z,35.17
2023-10-25T18:08:33.668Z,30.50
2023-10-25T18:11:03.345Z,29.15
2023-10-25T18:13:31.955Z,25.68
2023-10-25T18:16:01.286Z,25.62
2023-10-25T18:18:31.287Z,24.90
2023-10-25T18:20:59.830Z,25.25
2023-10-25T18:23:29.766Z,24.70
2023-10-25T18:26:05.025Z,41.00
2023-10-25T18:28:35.468Z,33.15
2023-10-25T18:31:58.351Z,54.73
2023-10-25T18:33:39.599Z,33.90
2023-10-25T18:36:09.179Z,35.07
2023-10-25T18:38:44.022Z,26.27
2023-10-25T18:41:15.251Z,30.37
2023-10-25T18:43:49.491Z,28.07
2023-10-25T18:46:17.431Z,27.32
2023-10-25T18:48:45.643Z,27.45
2023-10-25T18:51:13.507Z,25.92
2023-10-25T18:53:41.597Z,26.23
2023-10-25T18:56:09.583Z,27.07
2023-10-25T18:58:40.110Z,24.60
2023-10-25T19:01:16.956Z,30.85
2023-10-25T19:03:50.608Z,31.00
2023-10-25T19:06:24.620Z,31.65
2023-10-25T19:08:48.513Z,32.70
2023-10-25T19:11:16.281Z,36.40
2023-10-25T19:13:45.816Z,36.13
2023-10-25T19:16:13.521Z,34.88
2023-10-25T19:18:42.993Z,35.98
2023-10-25T19:21:10.995Z,34.73
2023-10-25T19:23:44.077Z,30.68
2023-10-25T19:26:12.307Z,31.35
2023-10-25T19:28:42.071Z,31.57
2023-10-25T19:31:11.478Z,28.90
2023-10-25T19:33:43.656Z,28.47
2023-10-25T19:36:19.880Z,26.75
2023-10-25T19:38:48.405Z,25.95
2023-10-25T19:41:16.522Z,27.77
2023-10-25T19:43:44.543Z,27.58
2023-10-25T19:46:12.603Z,37.88
2023-10-25T19:48:40.268Z,39.70
2023-10-25T19:51:16.129Z,39.10
2023-10-25T19:53:44.248Z,28.55
2023-10-25T19:56:12.893Z,24.63
2023-10-25T19:58:40.867Z,22.82
2023-10-25T20:01:08.673Z,23.42
2023-10-25T20:03:36.687Z,23.85
2023-10-25T20:06:10.097Z,23.38
2023-10-25T20:08:37.879Z,25.70
2023-10-25T20:11:06.589Z,25.25
2023-10-25T20:13:34.377Z,25.35
2023-10-25T20:16:06.003Z,27.25
2023-10-25T20:18:36.325Z,26.35
2023-10-25T20:21:08.874Z,26.23
2023-10-25T20:23:36.857Z,25.92
2023-10-25T20:26:11.595Z,22.58
2023-10-25T20:28:36.651Z,22.82
2023-10-25T20:31:06.341Z,22.52
2023-10-25T20:33:34.393Z,22.70
2023-10-25T20:36:02.232Z,25.65
2023-10-25T20:38:33.603Z,25.80
2023-10-25T20:41:08.299Z,22.85
2023-10-25T20:43:36.334Z,21.17
2023-10-25T20:46:04.854Z,22.15
2023-10-25T20:48:33.020Z,21.80
2023-10-25T20:51:05.819Z,28.25
2023-10-25T20:53:33.908Z,26.12
2023-10-25T20:56:02.116Z,29.05
2023-10-25T20:58:30.642Z,27.87
2023-10-25T21:00:58.394Z,26.15
2023-10-25T21:03:26.324Z,24.30
2023-10-25T21:05:55.700Z,22.85
2023-10-25T21:08:23.833Z,21.48
2023-10-25T21:10:52.276Z,19.62
2023-10-25T21:13:20.407Z,20.82
2023-10-25T21:15:49.583Z,21.50
2023-10-25T21:18:17.416Z,24.30
2023-10-25T21:20:51.834Z,22.35
2023-10-25T21:23:19.910Z,23.32
2023-10-25T21:25:47.854Z,24.77
2023-10-25T21:28:16.164Z,25.65
2023-10-25T21:30:44.078Z,24.63
2023-10-25T21:33:11.833Z,26.50
2023-10-25T21:35:39.816Z,23.35
2023-10-25T21:38:07.545Z,19.80
2023-10-25T21:40:37.651Z,20.75
2023-10-25T21:43:06.717Z,23.42
2023-10-25T21:45:34.578Z,25.62
2023-10-25T21:48:02.360Z,24.43
2023-10-25T21:50:30.418Z,23.10
2023-10-25T21:52:58.199Z,23.95
2023-10-25T21:55:26.323Z,23.25
2023-10-25T21:59:47.051Z,23.05
2023-10-25T22:00:26.081Z,22.17
2023-10-25T22:02:54.398Z,20.80
2023-10-25T22:05:22.777Z,18.17
2023-10-25T22:07:50.693Z,14.85
2023-10-25T22:10:18.606Z,13.65
2023-10-25T22:12:46.444Z,11.90
2023-10-25T22:15:14.712Z,11.90
2023-10-25T22:17:43.192Z,12.50
2023-10-25T22:20:13.098Z,10.40
2023-10-25T22:22:41.276Z,10.15
2023-10-25T22:25:09.287Z,9.78
2023-10-25T22:27:37.096Z,10.23
2023-10-25T22:30:06.721Z,11.53
2023-10-25T22:32:34.494Z,12.73
2023-10-25T22:35:03.170Z,14.05
2023-10-25T22:37:31.217Z,13.28
2023-10-25T22:40:01.155Z,16.50
2023-10-25T22:42:29.177Z,14.78
2023-10-25T22:44:57.190Z,14.20
2023-10-25T22:47:26.967Z,15.38
2023-10-25T22:49:54.692Z,15.28
2023-10-25T22:52:22.677Z,15.90
2023-10-25T22:54:50.280Z,13.50
2023-10-25T22:57:18.011Z,11.85
2023-10-25T22:59:45.938Z,11.83
2023-10-25T23:02:13.399Z,11.33
2023-10-25T23:04:41.185Z,11.83
2023-10-25T23:07:10.856Z,11.38
2023-10-25T23:09:38.670Z,12.93
2023-10-25T23:12:07.502Z,12.60
2023-10-25T23:14:35.666Z,12.90
2023-10-25T23:17:03.733Z,13.10
2023-10-25T23:19:31.800Z,13.65
2023-10-25T23:21:59.783Z,12.13
2023-10-25T23:24:27.782Z,11.25
2023-10-25T23:26:57.526Z,10.58
2023-10-25T23:29:29.731Z,9.60
2023-10-25T23:31:57.730Z,9.58
2023-10-25T23:34:25.621Z,9.48
2023-10-25T23:36:53.703Z,9.08
2023-10-25T23:39:21.685Z,8.43
2023-10-25T23:41:49.577Z,8.45
2023-10-25T23:44:17.350Z,8.38
2023-10-25T23:46:45.054Z,8.60
2023-10-25T23:49:12.875Z,8.60
2023-10-25T23:51:40.758Z,8.55
2023-10-25T23:54:52.507Z,8.20
2023-10-25T23:56:38.241Z,8.03
2023-10-25T23:59:06.315Z,8.33
